createdAt,value
2018-07-11T00:02:49.838Z,100416.29
2018-07-11T00:05:47.440Z,100412.80
2018-07-11T00:08:44.658Z,100413.70
2018-07-11T00:11:42.441Z,100420.51
2018-07-11T00:14:40.210Z,100411.32
2018-07-11T00:17:38.273Z,100406.74
2018-07-11T00:20:36.363Z,100402.98
2018-07-11T00:23:34.434Z,100403.95
2018-07-11T00:26:31.886Z,100400.27
2018-07-11T00:29:28.953Z,100406.25
2018-07-11T00:32:26.194Z,100408.94
2018-07-11T00:35:24.466Z,100409.84
2018-07-11T00:38:21.641Z,100416.52
2018-07-11T00:41:18.885Z,100414.09
2018-07-11T00:44:16.587Z,100419.61
2018-07-11T00:47:15.191Z,100423.33
2018-07-11T00:50:12.662Z,100421.05
2018-07-11T00:53:10.070Z,100408.58
2018-07-11T00:56:09.570Z,100412.25
2018-07-11T00:59:13.953Z,100411.27
2018-07-11T01:02:14.230Z,100409.95
2018-07-11T01:05:12.153Z,100403.34
2018-07-11T01:08:09.769Z,100412.88
2018-07-11T01:11:07.954Z,100410.64
2018-07-11T01:14:05.378Z,100419.20
2018-07-11T01:17:02.510Z,100421.66
2018-07-11T01:20:00.860Z,100422.45
2018-07-11T01:22:58.803Z,100411.06
2018-07-11T01:25:56.183Z,100411.73
2018-07-11T01:28:53.822Z,100410.08
2018-07-11T01:31:51.655Z,100411.80
2018-07-11T01:34:49.627Z,100407.77
2018-07-11T01:37:46.754Z,100408.55
2018-07-11T01:40:44.800Z,100397.53
2018-07-11T01:43:42.815Z,100401.84
2018-07-11T01:46:42.226Z,100399.64
2018-07-11T01:49:39.718Z,100393.59
2018-07-11T01:52:49.206Z,100388.55
2018-07-11T01:55:46.358Z,100390.56
2018-07-11T01:58:43.552Z,100384.53
2018-07-11T02:01:41.587Z,100382.17
2018-07-11T02:04:39.027Z,100384.97
2018-07-11T02:07:37.212Z,100379.55
2018-07-11T02:10:34.713Z,100380.58
2018-07-11T02:13:32.279Z,100375.78
2018-07-11T02:16:30.111Z,100384.53
2018-07-11T02:19:29.878Z,100384.94
2018-07-11T02:22:27.126Z,100384.45
2018-07-11T02:25:24.562Z,100380.06
2018-07-11T02:28:22.018Z,100388.99
2018-07-11T02:31:19.399Z,100390.86
2018-07-11T02:34:16.466Z,100392.78
2018-07-11T02:37:13.579Z,100398.60
2018-07-11T02:40:10.857Z,100390.75
2018-07-11T02:43:08.238Z,100388.10
2018-07-11T02:46:05.825Z,100389.30
2018-07-11T02:49:03.941Z,100383.91
2018-07-11T02:52:01.447Z,100378.73
2018-07-11T02:54:58.878Z,100386.94
2018-07-11T02:57:56.590Z,100378.59
2018-07-11T03:00:54.692Z,100376.66
2018-07-11T03:03:52.827Z,100387.77
2018-07-11T03:06:49.919Z,100387.91
2018-07-11T03:09:47.046Z,100382.00
2018-07-11T03:12:44.050Z,100386.33
2018-07-11T03:15:41.675Z,100389.22
2018-07-11T03:18:38.771Z,100391.03
2018-07-11T03:21:35.895Z,100388.17
2018-07-11T03:24:33.115Z,100379.30
2018-07-11T03:27:30.200Z,100387.84
2018-07-11T03:30:27.248Z,100382.02
2018-07-11T03:33:24.417Z,100388.00
2018-07-11T03:36:21.626Z,100393.89
2018-07-11T03:39:19.796Z,100397.23
2018-07-11T03:42:17.044Z,100398.33
2018-07-11T03:45:14.341Z,100397.84
2018-07-11T03:48:11.468Z,100388.83
2018-07-11T03:51:08.663Z,100393.16
2018-07-11T03:54:06.156Z,100391.62
2018-07-11T03:57:03.354Z,100389.14
2018-07-11T04:00:01.462Z,100384.21
2018-07-11T04:02:58.937Z,100389.91
2018-07-11T04:05:56.225Z,100385.89
2018-07-11T04:08:54.414Z,100395.55
2018-07-11T04:11:52.595Z,100393.01
2018-07-11T04:14:49.690Z,100401.11
2018-07-11T04:17:47.539Z,100398.59
2018-07-11T04:20:45.182Z,100394.17
2018-07-11T04:23:43.088Z,100399.94
2018-07-11T04:26:40.287Z,100398.77
2018-07-11T04:29:37.448Z,100397.05
2018-07-11T04:32:34.648Z,100385.52
2018-07-11T04:35:32.017Z,100394.48
2018-07-11T04:38:29.432Z,100395.85
2018-07-11T04:41:27.559Z,100403.50
2018-07-11T04:44:25.821Z,100406.06
2018-07-11T04:47:22.999Z,100414.41
2018-07-11T04:50:20.139Z,100412.02
2018-07-11T04:53:20.143Z,100412.31
2018-07-11T04:56:24.754Z,100418.05
2018-07-11T04:59:22.341Z,100416.73
2018-07-11T05:02:20.335Z,100414.55
2018-07-11T05:05:17.855Z,100418.00
2018-07-11T05:08:15.336Z,100411.60
2018-07-11T05:11:12.852Z,100416.14
2018-07-11T05:14:10.652Z,100423.20
2018-07-11T05:17:08.314Z,100422.83
2018-07-11T05:20:05.759Z,100422.66
2018-07-11T05:23:03.346Z,100418.44
2018-07-11T05:26:00.414Z,100430.59
2018-07-11T05:28:57.687Z,100440.95
2018-07-11T05:31:55.135Z,100444.37
2018-07-11T05:34:52.583Z,100449.95
2018-07-11T05:37:50.055Z,100454.45
2018-07-11T05:40:47.589Z,100460.85
2018-07-11T05:43:44.861Z,100454.58
2018-07-11T05:46:42.215Z,100460.97
2018-07-11T05:49:39.702Z,100457.62
2018-07-11T05:52:37.331Z,100450.00
2018-07-11T05:55:34.830Z,100451.82
2018-07-11T05:58:32.043Z,100453.67
2018-07-11T06:01:30.039Z,100447.59
2018-07-11T06:04:27.295Z,100446.25
2018-07-11T06:07:24.547Z,100450.62
2018-07-11T06:10:21.819Z,100444.24
2018-07-11T06:13:18.871Z,100445.95
2018-07-11T06:16:16.151Z,100446.38
2018-07-11T06:19:14.088Z,100446.77
2018-07-11T06:22:11.386Z,100448.83
2018-07-11T06:25:08.585Z,100450.74
2018-07-11T06:28:05.714Z,100455.72
2018-07-11T06:31:03.896Z,100452.63
2018-07-11T06:34:01.906Z,100444.30
2018-07-11T06:37:00.184Z,100451.63
2018-07-11T06:39:58.381Z,100447.34
2018-07-11T06:42:56.415Z,100448.57
2018-07-11T06:45:54.198Z,100446.95
2018-07-11T06:48:52.422Z,100452.80
2018-07-11T06:51:50.077Z,100438.89
2018-07-11T06:54:47.961Z,100440.99
2018-07-11T06:57:45.149Z,100439.09
2018-07-11T07:00:42.497Z,100439.67
2018-07-11T07:03:39.884Z,100441.96
2018-07-11T07:06:37.203Z,100446.21
2018-07-11T07:09:34.402Z,100447.42
2018-07-11T07:12:31.899Z,100450.52
2018-07-11T07:15:29.309Z,100449.77
2018-07-11T07:18:27.402Z,100446.30
2018-07-11T07:21:24.826Z,100449.98
2018-07-11T07:24:22.035Z,100445.80
2018-07-11T07:27:19.418Z,100446.43
2018-07-11T07:30:16.618Z,100444.11
2018-07-11T07:33:13.930Z,100440.41
2018-07-11T07:36:11.101Z,100442.17
2018-07-11T07:39:08.091Z,100440.63
2018-07-11T07:42:06.379Z,100443.45
2018-07-11T07:45:04.398Z,100441.74
2018-07-11T07:48:02.400Z,100430.06
2018-07-11T07:50:59.639Z,100432.80
2018-07-11T07:53:57.969Z,100418.97
2018-07-11T07:56:55.950Z,100417.64
2018-07-11T07:59:53.890Z,100420.31
2018-07-11T08:02:51.211Z,100415.45
2018-07-11T08:05:48.371Z,100412.92
2018-07-11T08:08:45.734Z,100421.36
2018-07-11T08:11:42.943Z,100406.70
2018-07-11T08:14:40.539Z,100403.69
2018-07-11T08:17:37.834Z,100408.90
2018-07-11T08:20:34.939Z,100405.92
2018-07-11T08:23:49.421Z,100409.02
2018-07-11T08:26:58.660Z,100407.69
2018-07-11T08:30:31.143Z,100413.23
2018-07-11T08:33:40.633Z,100406.55
2018-07-11T08:37:49.646Z,100402.77
2018-07-11T08:43:04.398Z,100401.48
2018-07-11T08:46:07.817Z,100403.49
2018-07-11T08:51:24.234Z,100397.16
2018-07-11T08:54:29.718Z,100395.95
2018-07-11T09:07:33.045Z,100398.17
2018-07-11T09:14:47.950Z,100389.82
2018-07-11T09:18:25.962Z,100390.93
2018-07-11T09:21:39.334Z,100388.05
2018-07-11T09:25:09.019Z,100385.06
2018-07-11T09:28:06.540Z,100378.73
2018-07-11T09:31:04.126Z,100380.41
2018-07-11T09:34:01.600Z,100383.09
2018-07-11T09:36:59.471Z,100381.91
2018-07-11T09:39:57.106Z,100378.31
2018-07-11T09:42:55.210Z,100383.93
2018-07-11T09:45:52.513Z,100374.86
2018-07-11T09:48:49.578Z,100372.45
2018-07-11T09:51:46.983Z,100372.59
2018-07-11T09:54:44.001Z,100373.45
2018-07-11T09:57:41.964Z,100368.47
2018-07-11T10:00:45.219Z,100366.64
2018-07-11T10:03:43.295Z,100353.70
2018-07-11T10:06:40.535Z,100358.54
2018-07-11T10:09:38.554Z,100368.80
2018-07-11T10:12:36.591Z,100370.48
2018-07-11T10:15:34.471Z,100365.76
2018-07-11T10:18:32.042Z,100363.18
2018-07-11T10:21:29.849Z,100363.32
2018-07-11T10:24:27.326Z,100356.66
2018-07-11T10:27:24.923Z,100359.44
2018-07-11T10:30:22.023Z,100358.02
2018-07-11T10:33:20.270Z,100355.09
2018-07-11T10:36:17.522Z,100354.11
2018-07-11T10:39:14.959Z,100350.88
2018-07-11T10:42:13.028Z,100343.92
2018-07-11T10:45:10.151Z,100339.80
2018-07-11T10:48:07.240Z,100331.69
2018-07-11T10:51:04.699Z,100332.28
2018-07-11T10:54:01.895Z,100333.80
2018-07-11T10:56:59.347Z,100329.50
2018-07-11T10:59:56.843Z,100333.80
2018-07-11T11:02:54.489Z,100320.26
2018-07-11T11:05:51.730Z,100316.78
2018-07-11T11:08:48.918Z,100316.61
2018-07-11T11:11:46.131Z,100308.97
2018-07-11T11:14:43.647Z,100315.89
2018-07-11T11:17:40.702Z,100314.89
2018-07-11T11:20:38.735Z,100314.66
2018-07-11T11:23:36.566Z,100321.83
2018-07-11T11:26:34.747Z,100315.53
2018-07-11T11:29:32.536Z,100315.48
2018-07-11T11:32:30.716Z,100314.30
2018-07-11T11:35:28.395Z,100315.59
2018-07-11T11:38:25.574Z,100303.38
2018-07-11T11:41:23.786Z,100312.62
2018-07-11T11:44:22.830Z,100306.53
2018-07-11T11:47:20.406Z,100303.53
2018-07-11T11:50:18.041Z,100305.63
2018-07-11T11:53:16.207Z,100302.47
2018-07-11T11:56:14.184Z,100315.95
2018-07-11T11:59:12.003Z,100326.55
2018-07-11T12:02:09.045Z,100320.06
2018-07-11T12:05:06.418Z,100306.61
2018-07-11T12:08:03.554Z,100310.91
2018-07-11T12:11:00.830Z,100314.78
2018-07-11T12:13:58.126Z,100310.33
2018-07-11T12:16:55.870Z,100309.00
2018-07-11T12:19:54.393Z,100312.48
2018-07-11T12:22:51.816Z,100310.80
2018-07-11T12:25:49.662Z,100304.44
2018-07-11T12:28:46.798Z,100299.00
2018-07-11T12:31:44.546Z,100301.87
2018-07-11T12:34:42.235Z,100304.51
2018-07-11T12:37:39.915Z,100297.58
2018-07-11T12:40:37.632Z,100293.28
2018-07-11T12:43:35.197Z,100291.93
2018-07-11T12:46:32.811Z,100294.23
2018-07-11T12:49:30.250Z,100292.10
2018-07-11T12:52:27.661Z,100287.56
2018-07-11T12:55:24.895Z,100292.52
2018-07-11T12:58:22.021Z,100294.45
2018-07-11T13:01:19.270Z,100292.39
2018-07-11T13:04:16.647Z,100293.25
2018-07-11T13:07:13.682Z,100290.36
2018-07-11T13:10:12.847Z,100291.48
2018-07-11T13:13:10.382Z,100293.03
2018-07-11T13:16:07.566Z,100287.84
2018-07-11T13:19:04.695Z,100296.39
2018-07-11T13:22:01.848Z,100285.34
2018-07-11T13:24:59.815Z,100285.69
2018-07-11T13:27:58.090Z,100279.36
2018-07-11T13:30:55.660Z,100292.56
2018-07-11T13:33:53.819Z,100285.59
2018-07-11T13:36:51.064Z,100284.20
2018-07-11T13:39:48.463Z,100275.80
2018-07-11T13:42:45.503Z,100271.09
2018-07-11T13:45:43.662Z,100265.58
2018-07-11T13:48:40.970Z,100266.77
2018-07-11T13:51:39.066Z,100266.48
2018-07-11T13:54:37.090Z,100264.63
2018-07-11T13:57:35.081Z,100257.66
2018-07-11T14:00:33.158Z,100264.47
2018-07-11T14:03:30.521Z,100260.87
2018-07-11T14:06:28.502Z,100263.97
2018-07-11T14:09:25.847Z,100262.28
2018-07-11T14:12:22.898Z,100252.44
2018-07-11T14:15:20.894Z,100252.88
2018-07-11T14:18:18.884Z,100254.13
2018-07-11T14:21:16.087Z,100246.89
2018-07-11T14:24:13.546Z,100245.45
2018-07-11T14:27:12.456Z,100232.53
2018-07-11T14:30:09.450Z,100244.88
2018-07-11T14:33:09.610Z,100244.48
2018-07-11T14:36:07.091Z,100247.00
2018-07-11T14:39:05.279Z,100256.02
2018-07-11T14:42:02.419Z,100250.41
2018-07-11T14:45:00.107Z,100254.71
2018-07-11T14:48:03.615Z,100252.71
2018-07-11T14:51:01.561Z,100260.83
2018-07-11T14:54:00.182Z,100253.73
2018-07-11T14:56:58.349Z,100258.27
2018-07-11T14:59:55.531Z,100253.32
2018-07-11T15:02:53.484Z,100245.89
2018-07-11T15:05:51.414Z,100245.44
2018-07-11T15:08:49.344Z,100250.01
2018-07-11T15:11:46.822Z,100247.20
2018-07-11T15:14:44.878Z,100244.66
2018-07-11T15:17:43.944Z,100241.37
2018-07-11T15:20:41.874Z,100234.56
2018-07-11T15:23:40.064Z,100236.84
2018-07-11T15:26:38.278Z,100236.87
2018-07-11T15:29:35.434Z,100232.73
2018-07-11T15:32:33.502Z,100235.39
2018-07-11T15:35:30.672Z,100239.82
2018-07-11T15:38:28.628Z,100236.64
2018-07-11T15:41:26.736Z,100232.91
2018-07-11T15:44:23.788Z,100240.19
2018-07-11T15:47:21.022Z,100231.30
2018-07-11T15:50:19.107Z,100230.61
2018-07-11T15:53:17.174Z,100233.47
2018-07-11T15:56:14.535Z,100224.15
2018-07-11T15:59:18.619Z,100223.48
2018-07-11T16:02:15.747Z,100222.12
2018-07-11T16:05:13.660Z,100236.18
2018-07-11T16:08:13.130Z,100226.03
2018-07-11T16:11:11.844Z,100229.20
2018-07-11T16:14:09.832Z,100218.79
2018-07-11T16:17:07.715Z,100214.92
2018-07-11T16:20:05.818Z,100215.34
2018-07-11T16:23:03.563Z,100219.23
2018-07-11T16:26:00.830Z,100218.72
2018-07-11T16:28:58.230Z,100221.66
2018-07-11T16:31:55.641Z,100235.94
2018-07-11T16:34:52.791Z,100228.28
2018-07-11T16:37:50.206Z,100238.52
2018-07-11T16:40:48.308Z,100233.27
2018-07-11T16:43:45.628Z,100234.20
2018-07-11T16:46:42.940Z,100235.83
2018-07-11T16:49:40.249Z,100243.53
2018-07-11T16:52:37.559Z,100238.58
2018-07-11T16:55:35.804Z,100252.33
2018-07-11T16:58:39.186Z,100251.91
2018-07-11T17:01:39.580Z,100253.45
2018-07-11T17:04:38.916Z,100252.06
2018-07-11T17:07:38.190Z,100260.20
2018-07-11T17:10:35.420Z,100261.80
2018-07-11T17:13:35.434Z,100251.17
2018-07-11T17:16:33.042Z,100253.11
2018-07-11T17:19:43.700Z,100257.97
2018-07-11T17:22:43.341Z,100262.98
2018-07-11T17:25:43.709Z,100264.68
2018-07-11T17:28:41.219Z,100262.03
2018-07-11T17:31:39.333Z,100263.58
2018-07-11T17:34:36.695Z,100267.83
2018-07-11T17:37:34.750Z,100274.60
2018-07-11T17:40:34.810Z,100292.20
2018-07-11T17:43:34.150Z,100296.95
2018-07-11T17:46:32.268Z,100289.20
2018-07-11T17:49:34.810Z,100289.56
2018-07-11T17:52:31.971Z,100299.20
2018-07-11T17:55:35.380Z,100298.91
2018-07-11T17:58:34.390Z,100301.22
2018-07-11T18:01:31.774Z,100314.50
2018-07-11T18:04:37.520Z,100315.52
2018-07-11T18:07:38.503Z,100315.50
2018-07-11T18:10:45.800Z,100316.17
2018-07-11T18:14:12.327Z,100312.50
2018-07-11T18:17:26.139Z,100324.46
2018-07-11T18:20:52.418Z,100323.14
2018-07-11T18:24:00.666Z,100319.48
2018-07-11T18:27:06.267Z,100323.48
2018-07-11T18:30:11.471Z,100321.83
2018-07-11T18:33:21.798Z,100324.82
2018-07-11T18:37:00.857Z,100330.78
2018-07-11T18:41:20.385Z,100327.45
2018-07-11T18:44:30.653Z,100325.47
2018-07-11T18:47:43.020Z,100324.97
2018-07-11T18:50:55.179Z,100328.45
2018-07-11T18:54:19.802Z,100334.45
2018-07-11T18:57:28.114Z,100335.43
2018-07-11T19:00:38.298Z,100332.13
2018-07-11T19:04:45.173Z,100337.75
2018-07-11T19:08:13.312Z,100336.91
2018-07-11T19:12:51.379Z,100347.20
2018-07-11T19:16:08.886Z,100338.41
2018-07-11T19:19:09.985Z,100340.06
2018-07-11T19:22:15.671Z,100340.22
2018-07-11T19:27:25.307Z,100342.39
2018-07-11T19:30:26.226Z,100342.36
2018-07-11T19:33:36.238Z,100339.03
2018-07-11T19:37:12.401Z,100345.68
2018-07-11T19:40:26.823Z,100347.48
2018-07-11T19:44:01.234Z,100355.45
2018-07-11T19:48:14.091Z,100356.77
2018-07-11T19:51:25.728Z,100356.41
2018-07-11T19:54:30.724Z,100355.94
2018-07-11T19:57:28.270Z,100356.60
2018-07-11T20:00:25.502Z,100356.80
2018-07-11T20:03:22.829Z,100362.91
2018-07-11T20:06:20.277Z,100363.89
2018-07-11T20:09:18.478Z,100363.24
2018-07-11T20:12:15.644Z,100363.22
2018-07-11T20:15:13.062Z,100365.69
2018-07-11T20:18:11.151Z,100363.55
2018-07-11T20:21:08.711Z,100363.88
2018-07-11T20:24:06.000Z,100368.17
2018-07-11T20:27:03.111Z,100361.69
2018-07-11T20:30:00.808Z,100375.28
2018-07-11T20:32:58.145Z,100369.47
2018-07-11T20:35:56.025Z,100379.59
2018-07-11T20:38:53.675Z,100379.09
2018-07-11T20:41:51.651Z,100389.80
2018-07-11T20:44:48.810Z,100398.20
2018-07-11T20:47:47.935Z,100391.56
2018-07-11T20:50:45.015Z,100385.33
2018-07-11T20:53:42.136Z,100388.34
2018-07-11T20:56:39.467Z,100394.32
2018-07-11T20:59:48.720Z,100391.99
2018-07-11T21:03:59.078Z,100402.28
2018-07-11T21:07:17.639Z,100409.16
2018-07-11T21:10:36.082Z,100409.52
2018-07-11T21:14:23.949Z,100403.89
2018-07-11T21:17:34.643Z,100414.00
2018-07-11T21:20:32.563Z,100413.06
2018-07-11T21:23:30.233Z,100410.09
2018-07-11T21:26:28.700Z,100399.63
2018-07-11T21:29:27.201Z,100411.36
2018-07-11T21:32:24.850Z,100415.98
2018-07-11T21:35:22.399Z,100416.98
2018-07-11T21:38:20.240Z,100417.67
2018-07-11T21:41:17.808Z,100408.58
2018-07-11T21:44:14.990Z,100407.80
2018-07-11T21:47:12.585Z,100412.27
2018-07-11T21:50:10.610Z,100409.09
2018-07-11T21:53:08.150Z,100411.09
2018-07-11T21:56:05.216Z,100404.64
2018-07-11T21:59:02.596Z,100413.42
2018-07-11T22:02:00.664Z,100405.79
2018-07-11T22:04:58.146Z,100404.60
2018-07-11T22:07:55.519Z,100405.78
2018-07-11T22:10:53.406Z,100408.44
2018-07-11T22:13:51.548Z,100413.02
2018-07-11T22:16:48.843Z,100416.17
2018-07-11T22:19:50.432Z,100422.02
2018-07-11T22:22:47.862Z,100425.90
2018-07-11T22:25:45.759Z,100423.48
2018-07-11T22:28:42.893Z,100423.44
2018-07-11T22:31:40.442Z,100421.01
2018-07-11T22:34:38.325Z,100430.42
2018-07-11T22:37:36.070Z,100436.23
2018-07-11T22:40:33.263Z,100441.54
2018-07-11T22:43:31.131Z,100434.91
2018-07-11T22:46:28.092Z,100432.63
2018-07-11T22:49:26.169Z,100425.07
2018-07-11T22:52:23.607Z,100424.78
2018-07-11T22:55:21.561Z,100431.27
2018-07-11T22:58:18.985Z,100436.87
2018-07-11T23:01:16.264Z,100437.36
2018-07-11T23:04:13.787Z,100435.47
2018-07-11T23:07:11.642Z,100438.38
2018-07-11T23:10:08.987Z,100437.55
2018-07-11T23:13:05.878Z,100435.40
2018-07-11T23:16:03.266Z,100446.69
2018-07-11T23:19:09.721Z,100447.41
2018-07-11T23:22:06.987Z,100445.36
2018-07-11T23:25:04.742Z,100439.52
2018-07-11T23:28:01.759Z,100443.75
2018-07-11T23:30:59.653Z,100443.85
2018-07-11T23:33:56.621Z,100443.53
2018-07-11T23:36:53.755Z,100444.36
2018-07-11T23:39:51.172Z,100443.89
2018-07-11T23:42:48.370Z,100434.11
2018-07-11T23:45:45.598Z,100431.70
2018-07-11T23:48:42.674Z,100430.16
2018-07-11T23:51:40.043Z,100432.34
2018-07-11T23:54:37.886Z,100433.70
2018-07-11T23:57:35.403Z,100440.98
